sensor_id;sensor_type;location;lat;lon;timestamp;P1;durP1;ratioP1;P2;durP2;ratioP2
5702;SDS011;2876;51.738;10.050;2024-02-04T00:02:09;18.40;;;9.52;;
5702;SDS011;2876;51.738;10.050;2024-02-04T00:08:15;9.70;;;8.13;;
5702;SDS011;2876;51.738;10.050;2024-02-04T00:14:18;11.90;;;7.00;;
5702;SDS011;2876;51.738;10.050;2024-02-04T00:20:20;13.27;;;7.97;;
5702;SDS011;2876;51.738;10.050;2024-02-04T00:26:23;11.97;;;8.40;;
5702;SDS011;2876;51.738;10.050;2024-02-04T00:32:25;13.83;;;9.03;;
5702;SDS011;2876;51.738;10.050;2024-02-04T00:38:28;11.07;;;8.80;;
5702;SDS011;2876;51.738;10.050;2024-02-04T00:44:30;10.63;;;8.60;;
5702;SDS011;2876;51.738;10.050;2024-02-04T00:50:32;17.57;;;9.23;;
5702;SDS011;2876;51.738;10.050;2024-02-04T00:56:34;9.97;;;7.80;;
5702;SDS011;2876;51.738;10.050;2024-02-04T01:02:36;9.13;;;7.00;;
5702;SDS011;2876;51.738;10.050;2024-02-04T01:08:38;7.87;;;6.67;;
5702;SDS011;2876;51.738;10.050;2024-02-04T01:14:40;6.60;;;5.57;;
5702;SDS011;2876;51.738;10.050;2024-02-04T01:20:41;10.33;;;6.53;;
5702;SDS011;2876;51.738;10.050;2024-02-04T01:26:43;11.70;;;5.93;;
5702;SDS011;2876;51.738;10.050;2024-02-04T01:32:45;7.93;;;6.13;;
5702;SDS011;2876;51.738;10.050;2024-02-04T01:38:48;9.30;;;6.35;;
5702;SDS011;2876;51.738;10.050;2024-02-04T01:44:50;10.30;;;5.93;;
5702;SDS011;2876;51.738;10.050;2024-02-04T01:50:53;7.17;;;5.67;;
5702;SDS011;2876;51.738;10.050;2024-02-04T01:56:56;8.10;;;5.47;;
5702;SDS011;2876;51.738;10.050;2024-02-04T02:03:04;10.20;;;5.90;;
5702;SDS011;2876;51.738;10.050;2024-02-04T02:09:08;7.67;;;5.50;;
5702;SDS011;2876;51.738;10.050;2024-02-04T02:15:16;8.13;;;5.63;;
5702;SDS011;2876;51.738;10.050;2024-02-04T02:28:16;11.77;;;6.10;;
5702;SDS011;2876;51.738;10.050;2024-02-04T02:34:18;8.77;;;6.70;;
5702;SDS011;2876;51.738;10.050;2024-02-04T02:40:44;17.43;;;7.70;;
5702;SDS011;2876;51.738;10.050;2024-02-04T02:46:55;11.77;;;6.90;;
5702;SDS011;2876;51.738;10.050;2024-02-04T02:52:59;10.00;;;7.10;;
5702;SDS011;2876;51.738;10.050;2024-02-04T02:59:01;10.40;;;7.47;;
5702;SDS011;2876;51.738;10.050;2024-02-04T03:05:05;10.30;;;6.83;;
5702;SDS011;2876;51.738;10.050;2024-02-04T03:11:07;9.83;;;6.43;;
5702;SDS011;2876;51.738;10.050;2024-02-04T03:17:09;7.67;;;6.10;;
5702;SDS011;2876;51.738;10.050;2024-02-04T03:23:12;8.87;;;6.90;;
5702;SDS011;2876;51.738;10.050;2024-02-04T03:29:15;9.23;;;6.93;;
5702;SDS011;2876;51.738;10.050;2024-02-04T03:35:17;9.87;;;5.80;;
5702;SDS011;2876;51.738;10.050;2024-02-04T03:41:19;8.03;;;6.60;;
5702;SDS011;2876;51.738;10.050;2024-02-04T03:47:21;12.13;;;7.27;;
5702;SDS011;2876;51.738;10.050;2024-02-04T03:53:23;11.63;;;7.63;;
5702;SDS011;2876;51.738;10.050;2024-02-04T03:59:26;11.10;;;7.60;;
5702;SDS011;2876;51.738;10.050;2024-02-04T04:05:28;11.77;;;7.30;;
5702;SDS011;2876;51.738;10.050;2024-02-04T04:11:31;11.83;;;7.47;;
5702;SDS011;2876;51.738;10.050;2024-02-04T04:17:33;11.83;;;7.20;;
5702;SDS011;2876;51.738;10.050;2024-02-04T04:23:35;10.63;;;7.17;;
5702;SDS011;2876;51.738;10.050;2024-02-04T04:29:37;10.53;;;6.70;;
5702;SDS011;2876;51.738;10.050;2024-02-04T04:35:39;9.05;;;7.05;;
5702;SDS011;2876;51.738;10.050;2024-02-04T04:41:43;9.00;;;6.50;;
5702;SDS011;2876;51.738;10.050;2024-02-04T04:47:46;4.80;;;4.30;;
5702;SDS011;2876;51.738;10.050;2024-02-04T04:53:48;3.30;;;3.00;;
5702;SDS011;2876;51.738;10.050;2024-02-04T04:59:53;3.20;;;2.90;;
5702;SDS011;2876;51.738;10.050;2024-02-04T05:05:55;2.13;;;1.97;;
5702;SDS011;2876;51.738;10.050;2024-02-04T05:11:57;2.03;;;1.83;;
5702;SDS011;2876;51.738;10.050;2024-02-04T05:18:02;2.30;;;2.10;;
5702;SDS011;2876;51.738;10.050;2024-02-04T05:24:05;2.30;;;2.10;;
5702;SDS011;2876;51.738;10.050;2024-02-04T05:30:08;1.50;;;1.40;;
5702;SDS011;2876;51.738;10.050;2024-02-04T05:36:10;2.07;;;1.93;;
5702;SDS011;2876;51.738;10.050;2024-02-04T05:42:12;4.68;;;2.42;;
5702;SDS011;2876;51.738;10.050;2024-02-04T05:48:14;2.00;;;1.87;;
5702;SDS011;2876;51.738;10.050;2024-02-04T05:54:16;2.10;;;1.90;;
5702;SDS011;2876;51.738;10.050;2024-02-04T06:00:18;3.27;;;2.47;;
5702;SDS011;2876;51.738;10.050;2024-02-04T06:06:21;2.53;;;2.10;;
5702;SDS011;2876;51.738;10.050;2024-02-04T06:12:23;2.47;;;2.03;;
5702;SDS011;2876;51.738;10.050;2024-02-04T06:18:25;1.90;;;1.80;;
5702;SDS011;2876;51.738;10.050;2024-02-04T06:24:27;2.17;;;1.97;;
5702;SDS011;2876;51.738;10.050;2024-02-04T06:30:29;1.93;;;1.73;;
5702;SDS011;2876;51.738;10.050;2024-02-04T06:36:31;1.93;;;1.83;;
5702;SDS011;2876;51.738;10.050;2024-02-04T06:42:33;3.05;;;2.15;;
5702;SDS011;2876;51.738;10.050;2024-02-04T06:48:35;3.75;;;1.85;;
5702;SDS011;2876;51.738;10.050;2024-02-04T06:54:37;2.33;;;1.87;;
5702;SDS011;2876;51.738;10.050;2024-02-04T07:00:39;5.77;;;2.70;;
5702;SDS011;2876;51.738;10.050;2024-02-04T07:06:42;3.20;;;2.63;;
5702;SDS011;2876;51.738;10.050;2024-02-04T07:12:45;4.67;;;3.30;;
5702;SDS011;2876;51.738;10.050;2024-02-04T07:18:47;3.03;;;2.73;;
5702;SDS011;2876;51.738;10.050;2024-02-04T07:24:49;3.70;;;3.40;;
5702;SDS011;2876;51.738;10.050;2024-02-04T07:30:51;3.03;;;2.72;;
5702;SDS011;2876;51.738;10.050;2024-02-04T07:36:53;5.53;;;4.03;;
5702;SDS011;2876;51.738;10.050;2024-02-04T07:42:55;4.03;;;2.70;;
5702;SDS011;2876;51.738;10.050;2024-02-04T07:48:57;2.43;;;2.20;;
5702;SDS011;2876;51.738;10.050;2024-02-04T07:54:59;4.10;;;2.50;;
5702;SDS011;2876;51.738;10.050;2024-02-04T08:01:01;3.50;;;2.00;;
5702;SDS011;2876;51.738;10.050;2024-02-04T08:07:03;2.22;;;1.85;;
5702;SDS011;2876;51.738;10.050;2024-02-04T08:13:06;2.47;;;2.27;;
5702;SDS011;2876;51.738;10.050;2024-02-04T08:19:08;2.60;;;2.20;;
5702;SDS011;2876;51.738;10.050;2024-02-04T08:25:10;2.17;;;1.97;;
5702;SDS011;2876;51.738;10.050;2024-02-04T08:31:13;2.87;;;2.53;;
5702;SDS011;2876;51.738;10.050;2024-02-04T08:37:15;2.17;;;1.98;;
5702;SDS011;2876;51.738;10.050;2024-02-04T08:43:17;5.23;;;2.70;;
5702;SDS011;2876;51.738;10.050;2024-02-04T08:49:19;12.77;;;3.07;;
5702;SDS011;2876;51.738;10.050;2024-02-04T08:55:21;3.97;;;3.20;;
5702;SDS011;2876;51.738;10.050;2024-02-04T09:01:23;6.43;;;4.37;;
5702;SDS011;2876;51.738;10.050;2024-02-04T09:07:25;6.87;;;4.80;;
5702;SDS011;2876;51.738;10.050;2024-02-04T09:13:29;6.33;;;4.07;;
5702;SDS011;2876;51.738;10.050;2024-02-04T09:19:31;6.30;;;5.47;;
5702;SDS011;2876;51.738;10.050;2024-02-04T09:25:34;8.80;;;5.17;;
5702;SDS011;2876;51.738;10.050;2024-02-04T09:31:36;10.50;;;6.32;;
5702;SDS011;2876;51.738;10.050;2024-02-04T09:37:38;18.50;;;10.83;;
5702;SDS011;2876;51.738;10.050;2024-02-04T09:43:40;10.23;;;5.50;;
5702;SDS011;2876;51.738;10.050;2024-02-04T09:49:43;8.03;;;6.10;;
5702;SDS011;2876;51.738;10.050;2024-02-04T09:55:46;7.20;;;5.90;;
5702;SDS011;2876;51.738;10.050;2024-02-04T10:01:52;7.70;;;5.77;;
5702;SDS011;2876;51.738;10.050;2024-02-04T10:07:56;8.07;;;4.25;;
5702;SDS011;2876;51.738;10.050;2024-02-04T10:13:58;6.87;;;3.83;;
5702;SDS011;2876;51.738;10.050;2024-02-04T10:20:02;6.57;;;2.70;;
5702;SDS011;2876;51.738;10.050;2024-02-04T10:26:04;6.37;;;2.50;;
5702;SDS011;2876;51.738;10.050;2024-02-04T10:32:08;1.90;;;1.63;;
5702;SDS011;2876;51.738;10.050;2024-02-04T10:38:10;1.97;;;1.83;;
5702;SDS011;2876;51.738;10.050;2024-02-04T10:44:12;5.00;;;1.60;;
5702;SDS011;2876;51.738;10.050;2024-02-04T10:50:18;2.30;;;1.73;;
5702;SDS011;2876;51.738;10.050;2024-02-04T11:02:44;4.33;;;1.10;;
5702;SDS011;2876;51.738;10.050;2024-02-04T11:08:47;3.90;;;1.47;;
5702;SDS011;2876;51.738;10.050;2024-02-04T11:14:51;2.50;;;2.30;;
5702;SDS011;2876;51.738;10.050;2024-02-04T11:21:18;6.17;;;2.90;;
5702;SDS011;2876;51.738;10.050;2024-02-04T11:27:45;5.87;;;2.90;;
5702;SDS011;2876;51.738;10.050;2024-02-04T11:33:50;4.90;;;3.27;;
5702;SDS011;2876;51.738;10.050;2024-02-04T11:39:53;4.27;;;1.63;;
5702;SDS011;2876;51.738;10.050;2024-02-04T11:45:59;3.80;;;2.07;;
5702;SDS011;2876;51.738;10.050;2024-02-04T11:52:04;3.67;;;3.03;;
5702;SDS011;2876;51.738;10.050;2024-02-04T11:58:07;6.00;;;2.80;;
5702;SDS011;2876;51.738;10.050;2024-02-04T12:04:11;6.50;;;4.10;;
5702;SDS011;2876;51.738;10.050;2024-02-04T12:10:16;4.17;;;3.50;;
5702;SDS011;2876;51.738;10.050;2024-02-04T12:16:19;5.60;;;2.83;;
5702;SDS011;2876;51.738;10.050;2024-02-04T12:22:21;4.30;;;3.27;;
5702;SDS011;2876;51.738;10.050;2024-02-04T12:28:23;6.40;;;2.50;;
5702;SDS011;2876;51.738;10.050;2024-02-04T12:34:25;5.73;;;3.10;;
5702;SDS011;2876;51.738;10.050;2024-02-04T12:40:28;4.50;;;3.10;;
5702;SDS011;2876;51.738;10.050;2024-02-04T12:46:32;2.33;;;1.80;;
5702;SDS011;2876;51.738;10.050;2024-02-04T12:52:34;3.27;;;2.80;;
5702;SDS011;2876;51.738;10.050;2024-02-04T12:58:42;5.27;;;2.80;;
5702;SDS011;2876;51.738;10.050;2024-02-04T13:04:44;3.20;;;2.90;;
5702;SDS011;2876;51.738;10.050;2024-02-04T13:10:47;2.60;;;2.13;;
5702;SDS011;2876;51.738;10.050;2024-02-04T13:16:58;3.60;;;2.73;;
5702;SDS011;2876;51.738;10.050;2024-02-04T13:23:00;4.13;;;3.47;;
5702;SDS011;2876;51.738;10.050;2024-02-04T13:29:06;9.27;;;5.30;;
5702;SDS011;2876;51.738;10.050;2024-02-04T13:35:09;5.43;;;4.20;;
5702;SDS011;2876;51.738;10.050;2024-02-04T13:41:19;9.07;;;5.73;;
5702;SDS011;2876;51.738;10.050;2024-02-04T13:47:21;5.20;;;3.77;;
5702;SDS011;2876;51.738;10.050;2024-02-04T13:53:23;10.40;;;5.23;;
5702;SDS011;2876;51.738;10.050;2024-02-04T13:59:25;7.03;;;4.60;;
5702;SDS011;2876;51.738;10.050;2024-02-04T14:05:27;14.93;;;6.57;;
5702;SDS011;2876;51.738;10.050;2024-02-04T14:11:29;10.00;;;4.93;;
5702;SDS011;2876;51.738;10.050;2024-02-04T14:17:31;9.07;;;4.20;;
5702;SDS011;2876;51.738;10.050;2024-02-04T14:23:34;12.20;;;6.70;;
5702;SDS011;2876;51.738;10.050;2024-02-04T14:29:36;5.70;;;3.00;;
5702;SDS011;2876;51.738;10.050;2024-02-04T14:35:38;2.30;;;2.10;;
5702;SDS011;2876;51.738;10.050;2024-02-04T14:41:40;6.77;;;3.20;;
5702;SDS011;2876;51.738;10.050;2024-02-04T14:47:41;7.07;;;3.53;;
5702;SDS011;2876;51.738;10.050;2024-02-04T14:53:44;8.53;;;4.23;;
5702;SDS011;2876;51.738;10.050;2024-02-04T14:59:46;4.70;;;3.07;;
5702;SDS011;2876;51.738;10.050;2024-02-04T15:05:48;6.93;;;4.40;;
5702;SDS011;2876;51.738;10.050;2024-02-04T15:11:51;6.40;;;5.73;;
5702;SDS011;2876;51.738;10.050;2024-02-04T15:17:53;3.43;;;2.40;;
5702;SDS011;2876;51.738;10.050;2024-02-04T15:23:55;3.80;;;3.40;;
5702;SDS011;2876;51.738;10.050;2024-02-04T15:29:58;4.87;;;3.10;;
5702;SDS011;2876;51.738;10.050;2024-02-04T15:36:01;3.63;;;3.30;;
5702;SDS011;2876;51.738;10.050;2024-02-04T15:42:03;5.43;;;2.40;;
5702;SDS011;2876;51.738;10.050;2024-02-04T15:48:05;3.20;;;2.40;;
5702;SDS011;2876;51.738;10.050;2024-02-04T15:54:10;2.83;;;2.63;;
5702;SDS011;2876;51.738;10.050;2024-02-04T16:00:13;6.17;;;2.70;;
5702;SDS011;2876;51.738;10.050;2024-02-04T16:06:19;4.87;;;3.07;;
5702;SDS011;2876;51.738;10.050;2024-02-04T16:12:22;3.73;;;2.70;;
5702;SDS011;2876;51.738;10.050;2024-02-04T16:18:24;10.47;;;4.57;;
5702;SDS011;2876;51.738;10.050;2024-02-04T16:24:27;10.10;;;5.60;;
5702;SDS011;2876;51.738;10.050;2024-02-04T16:30:29;3.20;;;2.30;;
5702;SDS011;2876;51.738;10.050;2024-02-04T16:36:32;6.50;;;3.70;;
5702;SDS011;2876;51.738;10.050;2024-02-04T16:42:34;4.30;;;3.07;;
5702;SDS011;2876;51.738;10.050;2024-02-04T16:48:37;5.37;;;4.53;;
5702;SDS011;2876;51.738;10.050;2024-02-04T16:54:39;6.80;;;4.67;;
5702;SDS011;2876;51.738;10.050;2024-02-04T17:00:41;7.30;;;5.43;;
5702;SDS011;2876;51.738;10.050;2024-02-04T17:06:45;6.10;;;5.50;;
5702;SDS011;2876;51.738;10.050;2024-02-04T17:12:48;4.10;;;3.70;;
5702;SDS011;2876;51.738;10.050;2024-02-04T17:18:52;4.20;;;3.80;;
5702;SDS011;2876;51.738;10.050;2024-02-04T17:25:29;4.80;;;4.30;;
5702;SDS011;2876;51.738;10.050;2024-02-04T17:31:34;5.10;;;3.10;;
5702;SDS011;2876;51.738;10.050;2024-02-04T17:37:36;3.80;;;3.00;;
5702;SDS011;2876;51.738;10.050;2024-02-04T17:43:41;3.20;;;2.70;;
5702;SDS011;2876;51.738;10.050;2024-02-04T17:49:43;4.50;;;3.60;;
5702;SDS011;2876;51.738;10.050;2024-02-04T17:55:45;10.30;;;6.20;;
5702;SDS011;2876;51.738;10.050;2024-02-04T18:01:47;11.53;;;7.30;;
5702;SDS011;2876;51.738;10.050;2024-02-04T18:07:50;10.10;;;5.60;;
5702;SDS011;2876;51.738;10.050;2024-02-04T18:13:53;7.03;;;4.53;;
5702;SDS011;2876;51.738;10.050;2024-02-04T18:19:55;4.50;;;2.80;;
5702;SDS011;2876;51.738;10.050;2024-02-04T18:25:57;3.33;;;2.60;;
5702;SDS011;2876;51.738;10.050;2024-02-04T18:31:59;2.90;;;2.60;;
5702;SDS011;2876;51.738;10.050;2024-02-04T18:38:02;2.50;;;2.30;;
5702;SDS011;2876;51.738;10.050;2024-02-04T18:44:04;3.93;;;3.50;;
5702;SDS011;2876;51.738;10.050;2024-02-04T18:50:07;2.93;;;2.43;;
5702;SDS011;2876;51.738;10.050;2024-02-04T18:56:10;4.23;;;2.70;;
5702;SDS011;2876;51.738;10.050;2024-02-04T19:02:17;1.47;;;1.30;;
5702;SDS011;2876;51.738;10.050;2024-02-04T19:08:19;2.90;;;2.50;;
5702;SDS011;2876;51.738;10.050;2024-02-04T19:14:21;3.33;;;1.57;;
5702;SDS011;2876;51.738;10.050;2024-02-04T19:20:24;1.40;;;1.30;;
5702;SDS011;2876;51.738;10.050;2024-02-04T19:26:29;2.10;;;1.50;;
5702;SDS011;2876;51.738;10.050;2024-02-04T19:32:31;1.53;;;1.43;;
5702;SDS011;2876;51.738;10.050;2024-02-04T19:38:33;1.87;;;1.57;;
5702;SDS011;2876;51.738;10.050;2024-02-04T19:44:35;1.50;;;1.40;;
5702;SDS011;2876;51.738;10.050;2024-02-04T19:50:37;1.73;;;1.63;;
5702;SDS011;2876;51.738;10.050;2024-02-04T19:56:40;1.70;;;1.60;;
5702;SDS011;2876;51.738;10.050;2024-02-04T20:02:42;1.60;;;1.50;;
5702;SDS011;2876;51.738;10.050;2024-02-04T20:08:44;5.40;;;2.60;;
5702;SDS011;2876;51.738;10.050;2024-02-04T20:14:46;3.33;;;2.67;;
5702;SDS011;2876;51.738;10.050;2024-02-04T20:20:50;1.80;;;1.70;;
5702;SDS011;2876;51.738;10.050;2024-02-04T20:26:52;2.92;;;2.50;;
5702;SDS011;2876;51.738;10.050;2024-02-04T20:32:55;1.50;;;1.40;;
5702;SDS011;2876;51.738;10.050;2024-02-04T20:38:57;1.50;;;1.37;;
5702;SDS011;2876;51.738;10.050;2024-02-04T20:44:59;1.30;;;1.20;;
5702;SDS011;2876;51.738;10.050;2024-02-04T20:51:01;1.60;;;1.50;;
5702;SDS011;2876;51.738;10.050;2024-02-04T20:57:05;1.63;;;1.47;;
5702;SDS011;2876;51.738;10.050;2024-02-04T21:03:07;1.50;;;1.40;;
5702;SDS011;2876;51.738;10.050;2024-02-04T21:09:09;1.50;;;1.40;;
5702;SDS011;2876;51.738;10.050;2024-02-04T21:15:11;1.73;;;1.20;;
5702;SDS011;2876;51.738;10.050;2024-02-04T21:21:13;3.13;;;1.37;;
5702;SDS011;2876;51.738;10.050;2024-02-04T21:27:16;1.83;;;1.40;;
5702;SDS011;2876;51.738;10.050;2024-02-04T21:33:19;1.47;;;1.23;;
5702;SDS011;2876;51.738;10.050;2024-02-04T21:39:21;1.10;;;1.00;;
5702;SDS011;2876;51.738;10.050;2024-02-04T21:45:23;1.30;;;1.20;;
5702;SDS011;2876;51.738;10.050;2024-02-04T21:51:26;0.90;;;0.90;;
5702;SDS011;2876;51.738;10.050;2024-02-04T21:57:29;1.43;;;0.90;;
5702;SDS011;2876;51.738;10.050;2024-02-04T22:03:32;2.00;;;1.10;;
5702;SDS011;2876;51.738;10.050;2024-02-04T22:09:35;2.30;;;1.00;;
5702;SDS011;2876;51.738;10.050;2024-02-04T22:15:38;0.90;;;0.90;;
5702;SDS011;2876;51.738;10.050;2024-02-04T22:21:40;2.20;;;1.40;;
5702;SDS011;2876;51.738;10.050;2024-02-04T22:27:42;2.20;;;1.37;;
5702;SDS011;2876;51.738;10.050;2024-02-04T22:33:44;1.50;;;1.40;;
5702;SDS011;2876;51.738;10.050;2024-02-04T22:39:47;1.40;;;1.30;;
5702;SDS011;2876;51.738;10.050;2024-02-04T22:45:49;1.70;;;1.60;;
5702;SDS011;2876;51.738;10.050;2024-02-04T22:51:51;1.60;;;1.40;;
5702;SDS011;2876;51.738;10.050;2024-02-04T22:57:53;1.50;;;1.40;;
5702;SDS011;2876;51.738;10.050;2024-02-04T23:03:55;1.00;;;1.00;;
5702;SDS011;2876;51.738;10.050;2024-02-04T23:09:57;1.30;;;1.20;;
5702;SDS011;2876;51.738;10.050;2024-02-04T23:15:59;1.43;;;1.33;;
5702;SDS011;2876;51.738;10.050;2024-02-04T23:22:01;1.30;;;1.20;;
5702;SDS011;2876;51.738;10.050;2024-02-04T23:28:03;1.33;;;1.20;;
5702;SDS011;2876;51.738;10.050;2024-02-04T23:34:06;2.40;;;1.13;;
5702;SDS011;2876;51.738;10.050;2024-02-04T23:40:08;1.17;;;1.08;;
5702;SDS011;2876;51.738;10.050;2024-02-04T23:46:11;1.37;;;1.27;;
5702;SDS011;2876;51.738;10.050;2024-02-04T23:52:15;1.57;;;1.47;;
5702;SDS011;2876;51.738;10.050;2024-02-04T23:58:18;1.33;;;1.23;;
